createdAt,value
2019-04-07T00:02:07.425Z,19.30
2019-04-07T00:04:36.729Z,17.82
2019-04-07T00:07:06.880Z,21.20
2019-04-07T00:09:36.493Z,17.82
2019-04-07T00:12:06.233Z,18.87
2019-04-07T00:14:37.129Z,18.42
2019-04-07T00:17:06.449Z,19.45
2019-04-07T00:19:35.698Z,19.25
2019-04-07T00:22:04.997Z,18.87
2019-04-07T00:24:39.932Z,17.98
2019-04-07T00:27:09.252Z,18.42
2019-04-07T00:29:39.361Z,17.95
2019-04-07T00:32:08.781Z,17.30
2019-04-07T00:34:39.709Z,18.65
2019-04-07T00:37:10.701Z,20.72
2019-04-07T00:39:39.943Z,19.40
2019-04-07T00:42:09.419Z,21.00
2019-04-07T00:44:38.997Z,20.27
2019-04-07T00:47:08.290Z,19.42
2019-04-07T00:49:37.612Z,21.80
2019-04-07T00:52:09.389Z,19.25
2019-04-07T00:54:39.137Z,19.42
2019-04-07T00:57:08.503Z,20.15
2019-04-07T00:59:37.798Z,21.15
2019-04-07T01:02:10.704Z,18.98
2019-04-07T01:04:44.637Z,19.87
2019-04-07T01:07:14.488Z,20.85
2019-04-07T01:09:44.138Z,19.50
2019-04-07T01:12:13.938Z,21.70
2019-04-07T01:14:43.363Z,20.37
2019-04-07T01:17:12.651Z,20.72
2019-04-07T01:19:42.302Z,21.37
2019-04-07T01:22:11.622Z,21.33
2019-04-07T01:24:40.874Z,22.20
2019-04-07T01:27:10.474Z,19.17
2019-04-07T01:29:39.997Z,22.75
2019-04-07T01:32:09.350Z,22.27
2019-04-07T01:34:39.606Z,20.80
2019-04-07T01:37:08.905Z,22.70
2019-04-07T01:39:38.308Z,22.55
2019-04-07T01:42:09.693Z,23.92
2019-04-07T01:44:44.607Z,21.87
2019-04-07T01:47:18.960Z,19.32
2019-04-07T01:49:55.884Z,21.57
2019-04-07T01:52:27.297Z,24.57
2019-04-07T01:55:14.702Z,22.15
2019-04-07T01:58:03.342Z,22.50
2019-04-07T02:00:40.371Z,21.12
2019-04-07T02:03:12.113Z,21.62
2019-04-07T02:05:42.972Z,20.60
2019-04-07T02:08:19.910Z,20.92
2019-04-07T02:11:09.195Z,21.42
2019-04-07T02:13:46.240Z,21.52
2019-04-07T02:16:33.343Z,21.42
2019-04-07T02:19:10.802Z,21.40
2019-04-07T02:21:50.337Z,21.23
2019-04-07T02:24:36.643Z,21.07
2019-04-07T02:27:16.530Z,21.62
2019-04-07T02:29:47.805Z,20.90
2019-04-07T02:32:35.793Z,21.12
2019-04-07T02:35:17.544Z,23.60
2019-04-07T02:37:54.664Z,23.22
2019-04-07T02:40:40.891Z,22.00
2019-04-07T02:46:27.793Z,21.73
2019-04-07T02:49:01.865Z,22.02
2019-04-07T02:51:34.371Z,23.22
2019-04-07T02:54:06.902Z,20.70
2019-04-07T02:56:54.295Z,23.07
2019-04-07T02:59:34.242Z,20.10
2019-04-07T03:02:05.780Z,23.05
2019-04-07T03:04:52.459Z,22.27
2019-04-07T03:07:29.718Z,21.85
2019-04-07T03:10:13.093Z,22.40
2019-04-07T03:12:44.070Z,23.65
2019-04-07T03:15:24.863Z,22.75
2019-04-07T03:18:08.898Z,18.42
2019-04-07T03:20:57.390Z,21.57
2019-04-07T03:23:28.616Z,20.88
2019-04-07T03:26:05.652Z,22.70
2019-04-07T03:28:36.578Z,21.90
2019-04-07T03:31:14.773Z,22.77
2019-04-07T03:33:52.236Z,23.15
2019-04-07T03:37:11.594Z,23.95
2019-04-07T03:39:15.072Z,21.70
2019-04-07T03:41:47.123Z,23.40
2019-04-07T03:44:25.493Z,22.67
2019-04-07T03:47:01.497Z,22.75
2019-04-07T03:49:32.486Z,22.15
2019-04-07T03:52:09.950Z,22.40
2019-04-07T03:54:43.880Z,23.42
2019-04-07T03:57:15.074Z,21.50
2019-04-07T03:59:52.148Z,24.27
2019-04-07T04:02:31.590Z,23.02
2019-04-07T04:05:05.558Z,22.13
2019-04-07T04:10:28.941Z,20.65
2019-04-07T04:13:00.816Z,22.58
2019-04-07T04:15:31.848Z,22.77
2019-04-07T04:18:01.228Z,21.15
2019-04-07T04:20:30.452Z,22.87
2019-04-07T04:22:59.853Z,23.35
2019-04-07T04:25:30.261Z,23.65
2019-04-07T04:28:02.447Z,22.58
2019-04-07T04:30:44.111Z,21.07
2019-04-07T04:33:13.456Z,22.42
2019-04-07T04:35:44.248Z,23.55
2019-04-07T04:38:13.572Z,23.15
2019-04-07T04:40:43.792Z,21.73
2019-04-07T04:43:13.725Z,21.87
2019-04-07T04:45:43.129Z,22.20
2019-04-07T04:48:12.404Z,20.45
2019-04-07T04:50:42.062Z,22.13
2019-04-07T04:53:11.366Z,22.50
2019-04-07T04:55:40.636Z,22.48
2019-04-07T04:58:11.369Z,21.07
2019-04-07T05:00:48.496Z,24.32
2019-04-07T05:03:18.191Z,22.15
2019-04-07T05:05:48.891Z,23.52
2019-04-07T05:08:20.426Z,24.00
2019-04-07T05:10:49.072Z,22.07
2019-04-07T05:13:18.366Z,24.92
2019-04-07T05:15:47.852Z,21.27
2019-04-07T05:18:21.068Z,22.98
2019-04-07T05:20:50.412Z,22.05
2019-04-07T05:23:23.082Z,24.07
2019-04-07T05:25:52.993Z,22.80
2019-04-07T05:28:22.282Z,20.65
2019-04-07T05:30:51.864Z,21.73
2019-04-07T05:33:21.173Z,21.45
2019-04-07T05:35:50.463Z,22.58
2019-04-07T05:38:20.169Z,23.40
2019-04-07T05:40:50.039Z,21.37
2019-04-07T05:43:22.671Z,22.90
2019-04-07T05:45:52.051Z,23.00
2019-04-07T05:48:21.589Z,22.70
2019-04-07T05:50:51.366Z,21.73
2019-04-07T05:53:20.706Z,23.00
2019-04-07T05:55:52.099Z,23.85
2019-04-07T05:58:22.211Z,23.27
2019-04-07T06:00:51.691Z,25.23
2019-04-07T06:03:38.622Z,21.15
2019-04-07T06:06:05.481Z,24.10
2019-04-07T06:08:38.691Z,22.62
2019-04-07T06:11:19.420Z,22.70
2019-04-07T06:13:50.691Z,20.35
2019-04-07T06:16:20.924Z,23.30
2019-04-07T06:18:52.353Z,22.40
2019-04-07T06:21:22.223Z,24.85
2019-04-07T06:23:55.364Z,24.32
2019-04-07T06:26:22.438Z,23.47
2019-04-07T06:28:55.923Z,22.95
2019-04-07T06:31:25.819Z,23.85
2019-04-07T06:33:55.061Z,21.35
2019-04-07T06:36:26.568Z,25.35
2019-04-07T06:38:55.575Z,21.00
2019-04-07T06:41:37.766Z,22.82
2019-04-07T06:44:11.415Z,22.60
2019-04-07T06:46:42.416Z,23.80
2019-04-07T06:49:17.264Z,22.42
2019-04-07T06:52:02.886Z,23.45
2019-04-07T06:54:44.842Z,22.75
2019-04-07T06:57:36.706Z,21.73
2019-04-07T07:00:19.193Z,21.37
2019-04-07T07:03:06.187Z,22.27
2019-04-07T07:05:53.667Z,23.20
2019-04-07T07:08:46.399Z,24.20
2019-04-07T07:11:28.841Z,25.08
2019-04-07T07:14:09.502Z,25.30
2019-04-07T07:16:49.948Z,20.95
2019-04-07T07:19:46.285Z,25.00
2019-04-07T07:22:23.590Z,21.12
2019-04-07T07:25:06.231Z,24.60
2019-04-07T07:27:40.483Z,22.58
2019-04-07T07:30:09.864Z,21.75
2019-04-07T07:32:46.439Z,24.52
2019-04-07T07:35:16.479Z,23.25
2019-04-07T07:37:47.689Z,24.82
2019-04-07T07:40:18.371Z,21.17
2019-04-07T07:42:57.425Z,22.62
2019-04-07T07:45:28.348Z,21.25
2019-04-07T07:47:57.748Z,25.95
2019-04-07T07:50:38.708Z,22.98
2019-04-07T07:53:08.128Z,23.55
2019-04-07T07:55:38.585Z,24.67
2019-04-07T07:58:15.738Z,21.80
2019-04-07T08:00:46.999Z,26.07
2019-04-07T08:03:16.617Z,22.77
2019-04-07T08:05:47.490Z,24.35
2019-04-07T08:08:18.669Z,24.05
2019-04-07T08:10:50.751Z,23.83
2019-04-07T08:13:22.081Z,27.98
2019-04-07T08:15:59.703Z,21.12
2019-04-07T08:18:30.788Z,24.00
2019-04-07T08:21:00.087Z,22.15
2019-04-07T08:23:29.693Z,24.60
2019-04-07T08:26:00.448Z,22.67
2019-04-07T08:28:29.839Z,25.62
2019-04-07T08:31:17.736Z,23.40
2019-04-07T08:33:44.619Z,22.50
2019-04-07T08:36:15.466Z,25.08
2019-04-07T08:38:45.526Z,24.85
2019-04-07T08:41:15.918Z,24.65
2019-04-07T08:43:48.344Z,24.15
2019-04-07T08:46:17.659Z,23.77
2019-04-07T08:48:51.779Z,22.48
2019-04-07T08:51:21.214Z,25.25
2019-04-07T08:53:54.823Z,23.10
2019-04-07T08:56:25.750Z,20.40
2019-04-07T08:58:56.717Z,25.57
2019-04-07T09:01:31.433Z,25.37
2019-04-07T09:04:05.600Z,24.77
2019-04-07T09:06:39.621Z,23.90
2019-04-07T09:09:09.109Z,25.20
2019-04-07T09:11:40.317Z,25.80
2019-04-07T09:14:11.898Z,24.95
2019-04-07T09:17:03.491Z,22.25
2019-04-07T09:19:53.774Z,22.82
2019-04-07T09:22:46.419Z,23.27
2019-04-07T09:25:20.419Z,23.42
2019-04-07T09:27:52.267Z,24.52
2019-04-07T09:30:29.726Z,22.25
2019-04-07T09:33:19.199Z,21.73
2019-04-07T09:36:05.237Z,20.05
2019-04-07T09:38:36.674Z,22.48
2019-04-07T09:41:08.436Z,22.35
2019-04-07T09:43:51.816Z,22.00
2019-04-07T09:46:22.927Z,24.20
2019-04-07T09:48:55.534Z,19.57
2019-04-07T09:51:28.062Z,23.62
2019-04-07T09:54:42.796Z,20.77
2019-04-07T09:57:12.749Z,20.02
2019-04-07T09:59:50.901Z,19.10
2019-04-07T10:02:30.768Z,20.30
2019-04-07T10:05:15.773Z,21.35
2019-04-07T10:07:53.276Z,21.27
2019-04-07T10:10:33.258Z,20.15
2019-04-07T10:13:04.155Z,19.73
2019-04-07T10:15:51.329Z,19.50
2019-04-07T10:18:38.318Z,20.88
2019-04-07T10:21:21.762Z,20.82
2019-04-07T10:23:54.094Z,20.08
2019-04-07T10:26:38.167Z,20.05
2019-04-07T10:29:12.615Z,19.70
2019-04-07T10:31:58.710Z,18.07
2019-04-07T10:34:38.716Z,20.00
2019-04-07T10:37:26.576Z,18.00
2019-04-07T10:40:36.257Z,17.30
2019-04-07T10:43:36.539Z,15.55
2019-04-07T10:46:14.634Z,17.32
2019-04-07T10:49:01.430Z,16.73
2019-04-07T10:51:58.048Z,19.25
2019-04-07T10:54:37.091Z,18.50
2019-04-07T10:57:14.238Z,18.42
2019-04-07T10:59:51.395Z,17.40
2019-04-07T11:02:29.381Z,16.95
2019-04-07T11:05:16.692Z,17.02
2019-04-07T11:07:50.397Z,14.18
2019-04-07T11:10:32.599Z,13.60
2019-04-07T11:13:15.711Z,13.62
2019-04-07T11:15:48.788Z,14.13
2019-04-07T11:18:27.904Z,12.05
2019-04-07T11:21:06.147Z,12.33
2019-04-07T11:23:56.373Z,11.33
2019-04-07T11:26:32.097Z,10.55
2019-04-07T11:29:06.425Z,12.40
2019-04-07T11:34:51.872Z,10.28
2019-04-07T11:37:39.676Z,10.18
2019-04-07T11:40:46.467Z,10.13
2019-04-07T11:43:20.808Z,11.85
2019-04-07T11:46:14.740Z,11.38
2019-04-07T11:49:02.371Z,11.08
2019-04-07T11:51:42.505Z,10.58
2019-04-07T11:54:21.515Z,10.90
2019-04-07T11:57:09.812Z,11.08
2019-04-07T11:59:43.674Z,12.07
2019-04-07T12:02:42.360Z,12.90
2019-04-07T12:05:16.954Z,12.05
2019-04-07T12:07:56.832Z,11.12
2019-04-07T12:10:54.835Z,12.58
2019-04-07T12:13:31.301Z,12.13
2019-04-07T12:16:11.345Z,10.75
2019-04-07T12:18:52.397Z,10.45
2019-04-07T12:21:26.727Z,11.40
2019-04-07T12:24:15.653Z,11.20
2019-04-07T12:26:54.940Z,10.88
2019-04-07T12:29:38.638Z,10.95
2019-04-07T12:32:18.406Z,9.53
2019-04-07T12:38:12.453Z,9.03
2019-04-07T12:40:51.052Z,7.72
2019-04-07T12:43:27.682Z,9.15
2019-04-07T12:46:01.313Z,9.03
2019-04-07T12:48:39.204Z,10.13
2019-04-07T12:51:19.890Z,8.65
2019-04-07T12:53:53.558Z,10.35
2019-04-07T12:56:36.150Z,9.05
2019-04-07T12:59:10.244Z,10.05
2019-04-07T13:01:57.914Z,10.23
2019-04-07T13:04:41.854Z,8.53
2019-04-07T13:07:19.509Z,8.85
2019-04-07T13:10:01.886Z,8.75
2019-04-07T13:12:34.398Z,7.97
2019-04-07T13:15:23.309Z,9.60
2019-04-07T13:17:57.394Z,8.70
2019-04-07T13:20:34.795Z,8.98
2019-04-07T13:23:09.609Z,7.65
2019-04-07T13:25:57.866Z,9.45
2019-04-07T13:28:37.153Z,9.48
2019-04-07T13:31:13.507Z,9.55
2019-04-07T13:33:53.274Z,9.38
2019-04-07T13:36:54.167Z,8.70
2019-04-07T13:39:44.951Z,10.90
2019-04-07T13:42:23.047Z,10.53
2019-04-07T13:45:14.037Z,10.35
2019-04-07T13:47:50.242Z,11.18
2019-04-07T13:50:29.894Z,11.38
2019-04-07T13:53:12.847Z,11.80
2019-04-07T13:56:21.604Z,13.25
2019-04-07T13:59:08.173Z,11.68
2019-04-07T14:01:41.471Z,11.97
2019-04-07T14:04:15.654Z,10.97
2019-04-07T14:06:52.433Z,10.80
2019-04-07T14:09:32.417Z,9.65
2019-04-07T14:12:09.033Z,8.30
2019-04-07T14:14:44.989Z,8.98
2019-04-07T14:17:46.687Z,9.15
2019-04-07T14:20:25.724Z,9.18
2019-04-07T14:23:08.530Z,8.60
2019-04-07T14:25:43.442Z,8.25
2019-04-07T14:28:21.818Z,7.65
2019-04-07T14:30:56.344Z,8.00
2019-04-07T14:33:33.798Z,8.85
2019-04-07T14:36:04.702Z,7.97
2019-04-07T14:38:35.683Z,7.40
2019-04-07T14:41:23.729Z,8.43
2019-04-07T14:43:56.521Z,8.55
2019-04-07T14:46:29.411Z,7.87
2019-04-07T14:49:13.117Z,8.80
2019-04-07T14:51:45.031Z,9.35
2019-04-07T14:54:32.378Z,9.78
2019-04-07T14:57:05.498Z,8.50
2019-04-07T14:59:54.548Z,9.47
2019-04-07T15:02:24.778Z,9.58
2019-04-07T15:05:01.526Z,9.05
2019-04-07T15:07:50.343Z,9.35
2019-04-07T15:10:31.910Z,9.10
2019-04-07T15:13:04.140Z,8.68
2019-04-07T15:15:35.741Z,9.50
2019-04-07T15:18:05.294Z,9.25
2019-04-07T15:20:36.267Z,9.20
2019-04-07T15:23:05.603Z,8.68
2019-04-07T15:25:42.251Z,9.50
2019-04-07T15:28:09.718Z,9.20
2019-04-07T15:30:39.590Z,9.53
2019-04-07T15:33:11.863Z,8.65
2019-04-07T15:35:47.853Z,9.15
2019-04-07T15:38:16.476Z,8.75
2019-04-07T15:40:51.727Z,9.18
2019-04-07T15:43:24.243Z,10.15
2019-04-07T15:45:53.538Z,9.10
2019-04-07T15:48:27.016Z,9.08
2019-04-07T15:51:04.632Z,8.63
2019-04-07T15:53:38.333Z,9.03
2019-04-07T15:56:13.067Z,9.05
2019-04-07T15:58:45.275Z,7.87
2019-04-07T16:01:19.405Z,8.40
2019-04-07T16:03:52.206Z,8.35
2019-04-07T16:06:20.857Z,7.97
2019-04-07T16:09:00.204Z,7.60
2019-04-07T16:11:30.742Z,8.05
2019-04-07T16:13:59.993Z,7.60
2019-04-07T16:16:29.613Z,8.45
2019-04-07T16:18:59.357Z,7.87
2019-04-07T16:21:29.722Z,8.63
2019-04-07T16:23:59.474Z,8.10
2019-04-07T16:26:31.119Z,7.47
2019-04-07T16:28:59.615Z,6.80
2019-04-07T16:31:28.907Z,6.55
2019-04-07T16:33:59.037Z,6.37
2019-04-07T16:36:28.488Z,6.80
2019-04-07T16:39:00.404Z,6.33
2019-04-07T16:41:31.613Z,6.83
2019-04-07T16:44:03.547Z,7.17
2019-04-07T16:46:31.706Z,6.55
2019-04-07T16:49:01.820Z,7.08
2019-04-07T16:51:49.393Z,5.72
2019-04-07T16:54:19.952Z,6.92
2019-04-07T16:56:55.181Z,6.80
2019-04-07T16:59:22.942Z,6.85
2019-04-07T17:01:53.491Z,6.47
2019-04-07T17:04:22.771Z,15.95
2019-04-07T17:07:00.681Z,7.65
2019-04-07T17:09:25.922Z,7.12
2019-04-07T17:12:09.375Z,8.30
2019-04-07T17:14:47.974Z,6.67
2019-04-07T17:17:20.806Z,6.47
2019-04-07T17:19:49.905Z,6.33
2019-04-07T17:22:21.267Z,5.95
2019-04-07T17:24:50.546Z,6.33
2019-04-07T17:27:20.875Z,6.45
2019-04-07T17:29:54.082Z,6.10
2019-04-07T17:32:21.497Z,6.28
2019-04-07T17:34:53.025Z,5.67
2019-04-07T17:37:25.952Z,7.62
2019-04-07T17:39:54.897Z,6.70
2019-04-07T17:42:27.262Z,7.42
2019-04-07T17:45:13.695Z,6.87
2019-04-07T17:47:47.507Z,7.95
2019-04-07T17:53:11.656Z,6.62
2019-04-07T17:55:52.719Z,6.42
2019-04-07T17:58:36.737Z,7.08
2019-04-07T18:01:08.282Z,7.42
2019-04-07T18:03:41.228Z,6.60
2019-04-07T18:06:11.810Z,7.37
2019-04-07T18:09:10.254Z,7.58
2019-04-07T18:15:06.534Z,6.67
2019-04-07T18:17:51.157Z,7.42
2019-04-07T18:20:22.887Z,7.80
2019-04-07T18:23:03.498Z,7.05
2019-04-07T18:25:35.306Z,7.53
2019-04-07T18:28:12.109Z,7.62
2019-04-07T18:30:52.657Z,7.08
2019-04-07T18:33:26.970Z,7.53
2019-04-07T18:36:18.003Z,6.97
2019-04-07T18:39:04.586Z,7.28
2019-04-07T18:44:44.642Z,7.95
2019-04-07T18:47:31.487Z,7.03
2019-04-07T18:50:18.700Z,8.10
2019-04-07T18:53:07.463Z,6.97
2019-04-07T18:55:39.346Z,6.72
2019-04-07T18:58:20.384Z,8.05
2019-04-07T19:01:07.349Z,7.78
2019-04-07T19:03:42.219Z,6.62
2019-04-07T19:06:18.541Z,7.75
2019-04-07T19:11:30.909Z,7.47
2019-04-07T19:14:33.435Z,7.37
2019-04-07T19:16:56.526Z,7.35
2019-04-07T19:19:38.448Z,7.33
2019-04-07T19:22:24.775Z,7.72
2019-04-07T19:25:13.470Z,7.92
2019-04-07T19:28:03.486Z,7.15
2019-04-07T19:30:39.256Z,7.10
2019-04-07T19:33:28.308Z,7.72
2019-04-07T19:36:16.810Z,6.92
2019-04-07T19:38:58.950Z,6.70
2019-04-07T19:44:41.593Z,10.60
2019-04-07T19:47:31.166Z,11.25
2019-04-07T19:50:12.582Z,11.50
2019-04-07T19:52:46.454Z,12.50
2019-04-07T20:00:58.159Z,12.23
2019-04-07T20:03:41.207Z,15.00
2019-04-07T20:06:22.219Z,15.03
2019-04-07T20:08:53.515Z,16.23
2019-04-07T20:11:38.645Z,18.55
2019-04-07T20:14:26.284Z,17.90
2019-04-07T20:17:00.266Z,20.30
2019-04-07T20:22:04.919Z,21.65
2019-04-07T20:24:57.413Z,25.35
2019-04-07T20:27:42.737Z,27.90
2019-04-07T20:30:28.442Z,28.42
2019-04-07T20:33:02.036Z,28.05
2019-04-07T20:35:33.060Z,30.88
2019-04-07T20:38:13.737Z,28.02
2019-04-07T20:40:47.850Z,29.42
2019-04-07T20:43:46.975Z,31.85
2019-04-07T20:46:23.501Z,30.92
2019-04-07T20:49:02.835Z,30.08
2019-04-07T20:51:40.968Z,32.83
2019-04-07T20:54:25.842Z,30.60
2019-04-07T20:56:57.560Z,26.55
2019-04-07T20:59:50.017Z,29.55
2019-04-07T21:02:33.578Z,28.45
2019-04-07T21:05:42.101Z,28.57
2019-04-07T21:08:33.231Z,30.37
2019-04-07T21:11:22.140Z,29.37
2019-04-07T21:14:09.649Z,28.40
2019-04-07T21:17:01.042Z,30.90
2019-04-07T21:19:47.903Z,30.12
2019-04-07T21:22:20.387Z,31.87
2019-04-07T21:24:57.036Z,32.90
2019-04-07T21:27:44.003Z,36.45
2019-04-07T21:30:33.344Z,34.78
2019-04-07T21:33:04.545Z,36.60
2019-04-07T21:35:41.267Z,36.03
2019-04-07T21:38:21.553Z,37.73
2019-04-07T21:40:59.828Z,38.48
2019-04-07T21:43:36.903Z,35.68
2019-04-07T21:46:15.333Z,35.92
2019-04-07T21:49:00.668Z,36.90
2019-04-07T21:51:40.984Z,34.33
2019-04-07T21:54:18.080Z,35.10
2019-04-07T21:56:49.150Z,35.95
2019-04-07T21:59:31.436Z,39.08
2019-04-07T22:02:09.259Z,37.85
2019-04-07T22:04:56.579Z,36.30
2019-04-07T22:07:33.547Z,36.85
2019-04-07T22:10:07.318Z,36.00
2019-04-07T22:12:36.873Z,34.58
2019-04-07T22:15:08.738Z,36.42
2019-04-07T22:17:38.415Z,37.48
2019-04-07T22:20:10.269Z,37.88
2019-04-07T22:22:40.774Z,35.08
2019-04-07T22:25:11.513Z,35.80
2019-04-07T22:27:41.085Z,34.80
2019-04-07T22:30:11.861Z,39.00
2019-04-07T22:32:41.160Z,35.15
2019-04-07T22:35:12.711Z,37.60
2019-04-07T22:37:48.065Z,37.05
2019-04-07T22:40:39.411Z,33.53
2019-04-07T22:43:09.299Z,39.98
2019-04-07T22:45:39.287Z,36.60
2019-04-07T22:48:08.599Z,36.88
2019-04-07T22:50:38.828Z,35.68
2019-04-07T22:53:09.389Z,36.63
2019-04-07T22:55:59.026Z,36.23
2019-04-07T22:58:28.388Z,35.25
2019-04-07T23:00:58.510Z,38.50
2019-04-07T23:03:29.296Z,35.88
2019-04-07T23:05:58.716Z,36.40
2019-04-07T23:08:29.224Z,37.13
2019-04-07T23:10:58.514Z,36.38
2019-04-07T23:13:27.997Z,35.65
2019-04-07T23:16:09.969Z,36.85
2019-04-07T23:18:28.291Z,36.95
2019-04-07T23:21:01.111Z,38.28
2019-04-07T23:23:31.066Z,36.58
2019-04-07T23:26:20.187Z,35.05
2019-04-07T23:28:49.506Z,35.50
2019-04-07T23:31:19.425Z,42.78
2019-04-07T23:33:48.828Z,41.73
2019-04-07T23:36:18.131Z,38.83
2019-04-07T23:38:47.539Z,40.12
2019-04-07T23:41:18.105Z,36.00
2019-04-07T23:43:47.931Z,39.70
2019-04-07T23:46:23.200Z,38.53
2019-04-07T23:48:53.961Z,34.83
2019-04-07T23:51:23.347Z,38.92
2019-04-07T23:54:09.283Z,40.78
2019-04-07T23:56:39.607Z,37.78
2019-04-07T23:59:08.994Z,36.93
